Time;durP1;ratioP1;P1;durP2;ratioP2;P2;SDS_P1;SDS_P2;PMS_P1;PMS_P2;Temp;Humidity;BMP_temperature;BMP_pressure;BME280_temperature;BME280_humidity;BME280_pressure;Samples;Min_cycle;Max_cycle;Signal;HPM_P1;HPM_P2
2022/07/17 00:00:13;;;;;;;;;;;21.70;61.30;;;;;;4873260;29;19944;-79
2022/07/17 00:02:39;;;;;;;;;;;21.60;61.40;;;;;;4874839;29;19998;-80
2022/07/17 00:05:05;;;;;;;;;;;21.50;61.50;;;;;;4873286;29;20349;-80
2022/07/17 00:07:30;;;;;;;;;;;21.40;61.50;;;;;;4874599;29;19914;-72
2022/07/17 00:09:56;;;;;;;;;;;21.30;61.50;;;;;;4873401;29;19919;-80
2022/07/17 00:12:22;;;;;;;;;;;21.30;61.50;;;;;;4857247;29;20365;-79
2022/07/17 00:14:47;;;;;;;;;;;21.20;61.50;;;;;;4874469;29;20371;-80
2022/07/17 00:17:14;;;;;;;;;;;21.20;61.60;;;;;;4874464;29;19919;-79
2022/07/17 00:19:39;;;;;;;;;;;21.10;61.80;;;;;;4873421;29;19919;-80
2022/07/17 00:22:05;;;;;;;;;;;21.10;61.80;;;;;;4874056;29;19919;-80
2022/07/17 00:24:30;;;;;;;;;;;21.10;61.70;;;;;;4874096;29;19940;-80
2022/07/17 00:26:56;;;;;;;;;;;21.10;61.70;;;;;;4873955;29;19912;-80
2022/07/17 00:29:22;;;;;;;;;;;21.10;61.60;;;;;;4874000;29;20285;-80
2022/07/17 00:31:47;;;;;;;;;;;21.00;61.70;;;;;;4874092;29;19939;-80
2022/07/17 00:34:13;;;;;;;;;;;21.00;61.70;;;;;;4873029;29;19915;-80
2022/07/17 00:36:38;;;;;;;;;;;21.10;61.80;;;;;;4874271;29;19916;-80
2022/07/17 00:39:04;;;;;;;;;;;21.10;61.70;;;;;;4873376;29;19912;-80
2022/07/17 00:41:30;;;;;;;;;;;21.00;61.60;;;;;;4873660;29;19979;-80
2022/07/17 00:44:02;;;;;;;;;;;20.90;61.70;;;;;;4873340;29;20277;-79
2022/07/17 00:46:28;;;;;;;;;;;20.80;61.80;;;;;;4873036;29;19911;-79
2022/07/17 00:48:54;;;;;;;;;;;20.70;61.90;;;;;;4872851;29;19911;-80
2022/07/17 00:51:19;;;;;;;;;;;20.60;61.80;;;;;;4857699;29;20381;-80
2022/07/17 00:53:46;;;;;;;;;;;20.60;61.80;;;;;;4857570;29;19912;-80
2022/07/17 00:56:12;;;;;;;;;;;20.60;61.80;;;;;;4872911;29;19932;-79
2022/07/17 00:58:38;;;;;;;;;;;20.60;61.80;;;;;;4873242;29;20268;-79
2022/07/17 01:01:08;;;;;;;;;;;20.60;61.80;;;;;;4872929;29;19931;-79
2022/07/17 01:03:33;;;;;;;;;;;20.60;61.70;;;;;;4872629;29;19908;-79
2022/07/17 01:05:59;;;;;;;;;;;20.50;61.70;;;;;;4874368;29;19916;-80
2022/07/17 01:08:25;;;;;;;;;;;20.50;61.60;;;;;;4872806;29;19931;-79
2022/07/17 01:10:50;;;;;;;;;;;20.40;61.60;;;;;;4876719;29;20316;-80
2022/07/17 01:13:16;;;;;;;;;;;20.40;61.60;;;;;;4877668;29;20340;-80
2022/07/17 01:15:42;;;;;;;;;;;20.40;61.50;;;;;;4876207;29;20399;-79
2022/07/17 01:18:10;;;;;;;;;;;20.40;61.50;;;;;;4877905;29;19916;-79
2022/07/17 01:20:37;;;;;;;;;;;20.30;61.50;;;;;;4877749;29;19994;-80
2022/07/17 01:23:03;;;;;;;;;;;20.30;61.60;;;;;;4876125;29;19911;-79
2022/07/17 01:25:28;;;;;;;;;;;20.30;61.70;;;;;;4877270;29;19963;-80
2022/07/17 01:27:54;;;;;;;;;;;20.20;61.80;;;;;;4877221;29;19913;-80
2022/07/17 01:30:20;;;;;;;;;;;20.20;61.90;;;;;;4877204;29;19998;-79
2022/07/17 01:32:45;;;;;;;;;;;20.20;61.80;;;;;;4860597;29;19915;-79
2022/07/17 01:35:12;;;;;;;;;;;20.10;61.80;;;;;;4876197;29;20364;-79
2022/07/17 01:37:39;;;;;;;;;;;20.10;62.00;;;;;;4877354;29;20506;-80
2022/07/17 01:40:05;;;;;;;;;;;20.10;62.00;;;;;;4876782;29;19911;-79
2022/07/17 01:42:31;;;;;;;;;;;20.10;62.00;;;;;;4878367;29;19907;-79
2022/07/17 01:44:57;;;;;;;;;;;20.20;62.10;;;;;;4878470;29;19915;-79
2022/07/17 01:47:23;;;;;;;;;;;20.20;62.10;;;;;;4876089;29;19919;-79
2022/07/17 01:49:50;;;;;;;;;;;20.20;62.10;;;;;;4877220;29;20022;-79
2022/07/17 01:52:16;;;;;;;;;;;20.20;62.00;;;;;;4875733;29;19911;-79
2022/07/17 01:54:42;;;;;;;;;;;20.20;62.00;;;;;;4875892;29;19918;-80
2022/07/17 01:57:08;;;;;;;;;;;20.30;62.00;;;;;;4877226;29;19912;-79
2022/07/17 01:59:35;;;;;;;;;;;20.30;61.90;;;;;;4877747;29;19908;-79
2022/07/17 02:02:00;;;;;;;;;;;20.30;61.80;;;;;;4876526;29;19932;-79
2022/07/17 02:04:26;;;;;;;;;;;20.40;61.90;;;;;;4878472;29;19963;-79
2022/07/17 02:06:54;;;;;;;;;;;20.40;61.90;;;;;;4875957;29;19925;-80
2022/07/17 02:09:21;;;;;;;;;;;20.50;61.80;;;;;;4877231;29;20337;-80
2022/07/17 02:11:46;;;;;;;;;;;20.60;61.80;;;;;;4876692;29;20340;-80
2022/07/17 02:14:12;;;;;;;;;;;20.60;61.60;;;;;;4877304;29;19994;-80
2022/07/17 02:16:37;;;;;;;;;;;20.60;61.50;;;;;;4877752;29;19918;-79
2022/07/17 02:19:03;;;;;;;;;;;20.70;61.60;;;;;;4876471;29;20006;-79
2022/07/17 02:21:28;;;;;;;;;;;20.70;61.60;;;;;;4876083;29;19908;-79
2022/07/17 02:23:54;;;;;;;;;;;20.70;61.60;;;;;;4876917;29;19916;-80
2022/07/17 02:26:20;;;;;;;;;;;20.70;61.60;;;;;;4875282;29;19975;-80
2022/07/17 02:28:45;;;;;;;;;;;20.70;61.60;;;;;;4876719;29;19908;-79
2022/07/17 02:31:11;;;;;;;;;;;20.80;61.60;;;;;;4875181;29;19986;-80
2022/07/17 02:33:36;;;;;;;;;;;20.80;61.50;;;;;;4874746;29;19966;-80
2022/07/17 02:36:02;;;;;;;;;;;20.80;61.50;;;;;;4859244;29;19916;-79
2022/07/17 02:38:28;;;;;;;;;;;20.80;61.50;;;;;;4877064;29;19918;-79
2022/07/17 02:40:53;;;;;;;;;;;20.80;61.40;;;;;;4859478;29;19998;-80
2022/07/17 02:43:19;;;;;;;;;;;20.80;61.40;;;;;;4877176;29;19931;-80
2022/07/17 02:45:44;;;;;;;;;;;20.80;61.40;;;;;;4875478;29;19912;-79
2022/07/17 02:48:10;;;;;;;;;;;20.80;61.50;;;;;;4874864;29;19915;-79
2022/07/17 02:50:35;;;;;;;;;;;20.70;61.50;;;;;;4874587;29;19915;-79
2022/07/17 02:53:01;;;;;;;;;;;20.70;62.10;;;;;;4874481;29;19915;-80
2022/07/17 02:55:27;;;;;;;;;;;20.60;61.70;;;;;;4875513;29;19931;-79
2022/07/17 02:57:52;;;;;;;;;;;20.60;61.70;;;;;;4874784;29;19908;-80
2022/07/17 03:00:18;;;;;;;;;;;20.60;61.70;;;;;;4874716;29;19949;-80
2022/07/17 03:02:44;;;;;;;;;;;20.60;61.70;;;;;;4874788;29;19911;-80
2022/07/17 03:05:12;;;;;;;;;;;20.60;61.60;;;;;;4875818;29;20392;-80
2022/07/17 03:07:38;;;;;;;;;;;20.50;61.50;;;;;;4876260;29;20256;-79
2022/07/17 03:10:03;;;;;;;;;;;20.50;61.50;;;;;;4874311;29;20014;-80
2022/07/17 03:12:29;;;;;;;;;;;20.40;61.50;;;;;;4859151;29;20015;-80
2022/07/17 03:14:55;;;;;;;;;;;20.30;61.50;;;;;;4876340;29;20368;-80
2022/07/17 03:17:20;;;;;;;;;;;20.30;61.50;;;;;;4874753;29;19908;-80
2022/07/17 03:19:46;;;;;;;;;;;20.20;61.50;;;;;;4875043;29;20376;-79
2022/07/17 03:22:11;;;;;;;;;;;20.20;61.60;;;;;;4874835;29;20372;-80
2022/07/17 03:24:37;;;;;;;;;;;20.20;61.60;;;;;;4876302;29;19911;-80
2022/07/17 03:27:02;;;;;;;;;;;20.20;61.60;;;;;;4874935;29;20036;-80
2022/07/17 03:29:28;;;;;;;;;;;20.20;61.60;;;;;;4875807;29;19920;-80
2022/07/17 03:31:54;;;;;;;;;;;20.10;61.50;;;;;;4874417;29;19908;-80
2022/07/17 03:34:19;;;;;;;;;;;20.10;61.50;;;;;;4875822;29;19919;-80
2022/07/17 03:36:45;;;;;;;;;;;20.10;61.60;;;;;;4874620;29;19951;-80
2022/07/17 03:39:10;;;;;;;;;;;20.10;61.60;;;;;;4874068;29;20285;-80
2022/07/17 03:41:36;;;;;;;;;;;20.10;61.60;;;;;;4873687;29;19911;-80
2022/07/17 03:44:02;;;;;;;;;;;20.10;61.70;;;;;;4875239;29;19908;-80
2022/07/17 03:46:27;;;;;;;;;;;20.10;61.70;;;;;;4874727;29;20285;-79
2022/07/17 03:48:53;;;;;;;;;;;20.00;61.90;;;;;;4874782;29;19907;-80
2022/07/17 03:51:18;;;;;;;;;;;19.90;61.90;;;;;;4873425;29;20124;-79
2022/07/17 03:53:44;;;;;;;;;;;19.90;62.00;;;;;;4873351;29;20370;-80
2022/07/17 03:56:10;;;;;;;;;;;19.70;61.90;;;;;;4873196;29;19942;-80
2022/07/17 03:58:35;;;;;;;;;;;19.60;62.00;;;;;;4873309;29;19916;-79
2022/07/17 04:01:01;;;;;;;;;;;19.60;62.10;;;;;;4874672;29;19927;-80
2022/07/17 04:03:27;;;;;;;;;;;19.50;62.10;;;;;;4873284;29;19964;-80
2022/07/17 04:05:52;;;;;;;;;;;19.50;62.10;;;;;;4874592;29;19912;-79
2022/07/17 04:08:18;;;;;;;;;;;19.50;62.10;;;;;;4874511;29;19947;-80
2022/07/17 04:10:44;;;;;;;;;;;19.40;62.00;;;;;;4873049;29;19919;-80
2022/07/17 04:13:10;;;;;;;;;;;19.40;62.00;;;;;;4873267;29;20257;-80
2022/07/17 04:15:56;;;;;;;;;;;19.40;62.00;;;;;;4874428;29;19918;-80
2022/07/17 04:18:23;;;;;;;;;;;19.40;62.00;;;;;;4873484;29;19915;-79
2022/07/17 04:20:48;;;;;;;;;;;19.40;62.00;;;;;;4874772;29;19908;-79
2022/07/17 04:23:14;;;;;;;;;;;19.30;62.10;;;;;;4873326;29;20340;-80
2022/07/17 04:25:40;;;;;;;;;;;19.30;62.20;;;;;;4874455;29;19912;-79
2022/07/17 04:28:06;;;;;;;;;;;19.20;62.20;;;;;;4873133;29;19918;-79
2022/07/17 04:30:32;;;;;;;;;;;19.20;62.20;;;;;;4872787;29;20051;-79
2022/07/17 04:32:57;;;;;;;;;;;19.20;62.10;;;;;;4873075;29;20218;-79
2022/07/17 04:35:23;;;;;;;;;;;19.10;62.10;;;;;;4872926;29;19915;-80
2022/07/17 04:37:49;;;;;;;;;;;19.10;62.30;;;;;;4857756;29;19959;-79
2022/07/17 04:40:14;;;;;;;;;;;19.00;62.40;;;;;;4872952;29;20364;-80
2022/07/17 04:42:40;;;;;;;;;;;19.10;62.40;;;;;;4872933;29;19918;-79
2022/07/17 04:45:06;;;;;;;;;;;19.10;62.30;;;;;;4873986;29;19912;-80
2022/07/17 04:47:31;;;;;;;;;;;19.20;62.20;;;;;;4877908;29;19916;-80
2022/07/17 04:49:57;;;;;;;;;;;19.20;62.20;;;;;;4877870;29;19940;-80
2022/07/17 04:52:23;;;;;;;;;;;19.20;62.20;;;;;;4876404;29;19912;-80
2022/07/17 04:54:48;;;;;;;;;;;19.30;62.20;;;;;;4878415;29;20066;-80
2022/07/17 04:57:14;;;;;;;;;;;19.30;62.60;;;;;;4878573;29;20002;-80
2022/07/17 04:59:39;;;;;;;;;;;19.40;62.00;;;;;;4877553;29;19919;-80
2022/07/17 05:02:05;;;;;;;;;;;19.40;61.80;;;;;;4877465;29;19922;-80
2022/07/17 05:04:31;;;;;;;;;;;19.50;61.70;;;;;;4877079;29;19908;-80
2022/07/17 05:06:56;;;;;;;;;;;19.50;61.70;;;;;;4877594;29;19911;-80
2022/07/17 05:09:22;;;;;;;;;;;19.50;61.60;;;;;;4877612;29;19964;-80
2022/07/17 05:11:47;;;;;;;;;;;19.50;61.70;;;;;;4877295;29;20432;-80
2022/07/17 05:14:13;;;;;;;;;;;19.50;61.80;;;;;;4876657;29;20330;-80
2022/07/17 05:16:39;;;;;;;;;;;19.50;61.90;;;;;;4876396;29;19928;-79
2022/07/17 05:19:04;;;;;;;;;;;19.40;62.00;;;;;;4877653;29;19919;-79
2022/07/17 05:21:30;;;;;;;;;;;19.30;62.20;;;;;;4877622;29;20383;-80
2022/07/17 05:23:56;;;;;;;;;;;19.30;62.20;;;;;;4875863;29;19971;-80
2022/07/17 05:26:21;;;;;;;;;;;19.40;62.30;;;;;;4860283;29;19995;-80
2022/07/17 05:28:47;;;;;;;;;;;19.40;62.20;;;;;;4877164;29;20360;-80
2022/07/17 05:31:12;;;;;;;;;;;19.50;62.10;;;;;;4875744;29;19930;-79
2022/07/17 05:33:38;;;;;;;;;;;19.50;62.00;;;;;;4876020;29;19916;-79
2022/07/17 05:36:04;;;;;;;;;;;19.50;61.90;;;;;;4875830;29;19923;-79
2022/07/17 05:38:29;;;;;;;;;;;19.40;62.00;;;;;;4860320;29;19915;-80
2022/07/17 05:40:55;;;;;;;;;;;19.40;62.10;;;;;;4875646;29;19918;-79
2022/07/17 05:43:20;;;;;;;;;;;19.50;62.10;;;;;;4875951;29;19912;-80
2022/07/17 05:45:46;;;;;;;;;;;19.50;61.90;;;;;;4875924;29;20010;-80
2022/07/17 05:48:11;;;;;;;;;;;19.60;62.00;;;;;;4876884;29;20262;-80
2022/07/17 05:50:37;;;;;;;;;;;19.60;61.90;;;;;;4875708;29;19912;-80
2022/07/17 05:53:03;;;;;;;;;;;19.70;62.00;;;;;;4860150;29;19924;-80
2022/07/17 05:55:28;;;;;;;;;;;19.80;62.00;;;;;;4877083;29;20456;-81
2022/07/17 05:57:54;;;;;;;;;;;19.90;62.00;;;;;;4876116;29;19908;-80
2022/07/17 06:00:20;;;;;;;;;;;19.90;62.00;;;;;;4876681;29;19932;-80
2022/07/17 06:02:45;;;;;;;;;;;19.90;62.10;;;;;;4876133;29;19954;-80
2022/07/17 06:05:11;;;;;;;;;;;19.90;62.20;;;;;;4875895;29;20365;-80
2022/07/17 06:07:37;;;;;;;;;;;19.90;62.20;;;;;;4877170;29;20385;-79
2022/07/17 06:10:03;;;;;;;;;;;19.80;62.30;;;;;;4875207;29;19998;-80
2022/07/17 06:12:29;;;;;;;;;;;19.80;63.00;;;;;;4876688;29;19912;-80
2022/07/17 06:14:54;;;;;;;;;;;19.90;62.50;;;;;;4876316;29;19919;-80
2022/07/17 06:17:20;;;;;;;;;;;20.00;62.40;;;;;;4876327;29;20022;-80
2022/07/17 06:19:45;;;;;;;;;;;20.10;62.30;;;;;;4875760;29;20365;-80
2022/07/17 06:22:11;;;;;;;;;;;20.20;62.30;;;;;;4875239;29;19934;-79
2022/07/17 06:24:36;;;;;;;;;;;20.10;62.30;;;;;;4875006;29;19933;-80
2022/07/17 06:27:02;;;;;;;;;;;20.00;62.50;;;;;;4859731;29;20455;-80
2022/07/17 06:29:27;;;;;;;;;;;20.10;62.60;;;;;;4876470;29;19916;-80
2022/07/17 06:31:53;;;;;;;;;;;20.20;62.60;;;;;;4874965;29;19912;-80
2022/07/17 06:34:19;;;;;;;;;;;20.30;62.50;;;;;;4875020;29;20390;-80
2022/07/17 06:36:44;;;;;;;;;;;20.40;62.40;;;;;;4859166;29;19916;-79
2022/07/17 06:39:10;;;;;;;;;;;20.50;62.30;;;;;;4876391;29;20365;-79
2022/07/17 06:41:35;;;;;;;;;;;20.50;62.40;;;;;;4876294;29;19983;-79
2022/07/17 06:44:01;;;;;;;;;;;20.50;62.20;;;;;;4874649;29;20000;-79
2022/07/17 06:46:26;;;;;;;;;;;20.50;62.10;;;;;;4874584;29;19912;-79
2022/07/17 06:48:52;;;;;;;;;;;20.60;62.20;;;;;;4874758;29;19923;-79
2022/07/17 06:51:18;;;;;;;;;;;20.70;62.20;;;;;;4876407;29;19912;-79
2022/07/17 06:53:43;;;;;;;;;;;20.70;62.20;;;;;;4876787;29;19915;-79
2022/07/17 06:56:09;;;;;;;;;;;20.80;62.20;;;;;;4878304;29;19932;-80
2022/07/17 06:58:35;;;;;;;;;;;20.90;62.20;;;;;;4879331;29;19919;-80
2022/07/17 07:01:00;;;;;;;;;;;21.00;62.20;;;;;;4878744;29;19975;-80
2022/07/17 07:03:26;;;;;;;;;;;21.00;62.30;;;;;;4879111;29;19915;-80
2022/07/17 07:05:51;;;;;;;;;;;21.10;62.30;;;;;;4876390;29;19916;-79
2022/07/17 07:08:17;;;;;;;;;;;21.30;62.40;;;;;;4876457;29;19947;-80
2022/07/17 07:10:44;;;;;;;;;;;21.50;62.40;;;;;;4879656;29;19911;-80
2022/07/17 07:13:09;;;;;;;;;;;21.70;62.40;;;;;;4879828;29;19999;-80
2022/07/17 07:15:35;;;;;;;;;;;21.90;62.40;;;;;;4879896;29;19912;-80
2022/07/17 07:18:00;;;;;;;;;;;22.10;62.20;;;;;;4879990;29;19912;-81
2022/07/17 07:20:26;;;;;;;;;;;22.30;62.20;;;;;;4877391;29;20341;-80
2022/07/17 07:22:52;;;;;;;;;;;22.50;62.30;;;;;;4874344;29;19951;-79
2022/07/17 07:25:18;;;;;;;;;;;22.80;62.20;;;;;;4873765;29;20322;-79
2022/07/17 07:27:43;;;;;;;;;;;23.00;62.10;;;;;;4873425;29;19912;-79
2022/07/17 07:30:09;;;;;;;;;;;23.10;61.90;;;;;;4858124;29;19922;-79
2022/07/17 07:32:44;;;;;;;;;;;23.10;62.00;;;;;;4858200;29;20395;-80
2022/07/17 07:35:10;;;;;;;;;;;23.30;62.00;;;;;;4874983;29;20321;-79
2022/07/17 07:37:35;;;;;;;;;;;23.20;61.90;;;;;;4875699;29;19912;-80
2022/07/17 07:40:02;;;;;;;;;;;23.30;61.90;;;;;;4874335;29;20223;-79
2022/07/17 07:42:27;;;;;;;;;;;23.50;62.20;;;;;;4873779;29;19924;-79
2022/07/17 07:44:53;;;;;;;;;;;24.30;62.60;;;;;;4873803;29;19908;-79
2022/07/17 07:47:19;;;;;;;;;;;25.70;62.30;;;;;;4875343;29;20309;-80
2022/07/17 07:49:45;;;;;;;;;;;27.10;62.00;;;;;;4874261;29;19912;-80
2022/07/17 07:52:11;;;;;;;;;;;28.30;61.30;;;;;;4874951;29;19908;-80
2022/07/17 07:54:36;;;;;;;;;;;29.20;61.00;;;;;;4876480;29;19912;-80
2022/07/17 07:57:02;;;;;;;;;;;29.60;60.80;;;;;;4874826;29;20321;-70
2022/07/17 07:59:28;;;;;;;;;;;30.30;60.90;;;;;;4877855;29;19983;-80
2022/07/17 08:01:54;;;;;;;;;;;30.90;60.70;;;;;;4877175;29;20030;-80
2022/07/17 08:04:19;;;;;;;;;;;31.20;60.70;;;;;;4858960;29;19920;-80
2022/07/17 08:06:45;;;;;;;;;;;31.50;61.20;;;;;;4875507;29;19928;-79
2022/07/17 08:09:10;;;;;;;;;;;32.10;60.90;;;;;;4874816;29;20376;-80
2022/07/17 08:11:36;;;;;;;;;;;32.80;60.70;;;;;;4873794;29;20258;-80
2022/07/17 08:14:01;;;;;;;;;;;33.50;60.30;;;;;;4873522;29;19919;-79
2022/07/17 08:16:27;;;;;;;;;;;34.10;59.80;;;;;;4858881;29;19915;-80
2022/07/17 08:18:53;;;;;;;;;;;34.80;60.00;;;;;;4874117;29;20304;-79
2022/07/17 08:21:18;;;;;;;;;;;35.10;60.10;;;;;;4861851;29;19979;-79
2022/07/17 08:23:44;;;;;;;;;;;35.40;60.10;;;;;;4878675;29;20277;-79
2022/07/17 08:26:09;;;;;;;;;;;35.40;59.90;;;;;;4877815;29;19919;-80
2022/07/17 08:28:35;;;;;;;;;;;35.30;60.00;;;;;;4877145;29;19918;-79
2022/07/17 08:31:00;;;;;;;;;;;35.30;60.20;;;;;;4877417;29;19911;-79
2022/07/17 08:33:26;;;;;;;;;;;35.40;60.40;;;;;;4878687;29;20384;-80
2022/07/17 08:35:52;;;;;;;;;;;35.60;60.50;;;;;;4879850;29;19997;-80
2022/07/17 08:38:17;;;;;;;;;;;35.30;60.10;;;;;;4878358;29;19941;-79
2022/07/17 08:40:49;;;;;;;;;;;34.60;60.20;;;;;;4878294;29;19916;-79
2022/07/17 08:43:14;;;;;;;;;;;33.90;60.80;;;;;;4879692;29;19912;-79
2022/07/17 08:45:40;;;;;;;;;;;34.10;61.40;;;;;;4880692;29;19926;-79
2022/07/17 08:48:07;;;;;;;;;;;34.80;61.70;;;;;;4881779;29;20174;-79
2022/07/17 08:50:34;;;;;;;;;;;35.60;61.60;;;;;;4880850;29;20361;-80
2022/07/17 08:53:00;;;;;;;;;;;36.10;61.40;;;;;;4879638;29;19911;-79
2022/07/17 08:55:25;;;;;;;;;;;36.20;61.10;;;;;;4880368;29;20266;-79
2022/07/17 08:57:51;;;;;;;;;;;36.10;60.80;;;;;;4880380;29;19912;-79
2022/07/17 09:00:18;;;;;;;;;;;36.30;61.20;;;;;;4878108;29;19916;-79
2022/07/17 09:02:55;;;;;;;;;;;36.90;61.50;;;;;;4877600;29;19986;-79
2022/07/17 09:05:21;;;;;;;;;;;37.40;61.40;;;;;;4877896;29;19947;-80
2022/07/17 09:07:47;;;;;;;;;;;37.70;61.50;;;;;;4878515;29;19908;-80
2022/07/17 09:10:13;;;;;;;;;;;38.20;61.50;;;;;;4876386;29;19927;-80
2022/07/17 09:12:38;;;;;;;;;;;38.00;60.90;;;;;;4877368;29;19912;-80
2022/07/17 09:15:14;;;;;;;;;;;37.60;61.30;;;;;;4877157;29;19907;-79
2022/07/17 09:17:47;;;;;;;;;;;37.50;61.60;;;;;;4877362;29;20385;-80
2022/07/17 09:20:13;;;;;;;;;;;37.50;62.30;;;;;;4875558;29;19908;-80
2022/07/17 09:22:38;;;;;;;;;;;37.90;62.30;;;;;;4875961;29;19955;-79
2022/07/17 09:25:04;;;;;;;;;;;38.10;61.80;;;;;;4877731;29;19917;-80
2022/07/17 09:27:31;;;;;;;;;;;37.80;61.70;;;;;;4877292;29;20270;-80
2022/07/17 09:30:04;;;;;;;;;;;37.90;62.10;;;;;;4877059;29;20391;-80
2022/07/17 09:32:32;;;;;;;;;;;38.00;61.60;;;;;;4876538;29;19974;-80
2022/07/17 09:34:59;;;;;;;;;;;37.40;61.10;;;;;;4876691;29;19907;-79
2022/07/17 09:37:25;;;;;;;;;;;36.50;61.10;;;;;;4875397;29;19919;-80
2022/07/17 09:39:53;;;;;;;;;;;35.80;61.30;;;;;;4877568;29;20352;-80
2022/07/17 09:42:29;;;;;;;;;;;35.10;61.40;;;;;;4876168;29;20035;-80
2022/07/17 09:44:55;;;;;;;;;;;34.70;62.00;;;;;;4875275;29;19916;-79
2022/07/17 09:47:21;;;;;;;;;;;34.80;62.30;;;;;;4876372;29;19922;-80
2022/07/17 09:49:47;;;;;;;;;;;35.10;62.40;;;;;;4874631;29;19962;-80
2022/07/17 09:52:13;;;;;;;;;;;35.40;62.10;;;;;;4874698;29;20031;-80
2022/07/17 09:54:38;;;;;;;;;;;35.70;62.10;;;;;;4875935;29;19912;-80
2022/07/17 09:57:04;;;;;;;;;;;35.80;61.90;;;;;;4875244;29;19915;-76
2022/07/17 09:59:34;;;;;;;;;;;35.80;62.00;;;;;;4858950;29;20429;-80
2022/07/17 10:02:00;;;;;;;;;;;35.70;61.80;;;;;;4876006;29;19931;-79
2022/07/17 10:04:26;;;;;;;;;;;35.40;61.50;;;;;;4876094;29;20029;-80
2022/07/17 10:06:53;;;;;;;;;;;35.10;61.40;;;;;;4874693;29;19923;-79
2022/07/17 10:09:18;;;;;;;;;;;34.60;61.60;;;;;;4874891;29;20280;-80
2022/07/17 10:11:44;;;;;;;;;;;34.50;62.30;;;;;;4875928;29;19911;-79
2022/07/17 10:14:13;;;;;;;;;;;34.80;62.60;;;;;;4858786;29;19919;-80
2022/07/17 10:16:40;;;;;;;;;;;35.20;62.50;;;;;;4874001;29;19988;-79
2022/07/17 10:19:16;;;;;;;;;;;35.40;62.10;;;;;;4875707;29;19908;-79
2022/07/17 10:21:51;;;;;;;;;;;35.80;62.10;;;;;;4875604;29;19926;-80
2022/07/17 10:24:17;;;;;;;;;;;36.10;61.90;;;;;;4875550;29;20391;-80
2022/07/17 10:26:48;;;;;;;;;;;36.40;61.90;;;;;;4874460;29;20022;-79
2022/07/17 10:29:28;;;;;;;;;;;36.80;61.90;;;;;;4873962;29;19978;-80
2022/07/17 10:31:54;;;;;;;;;;;37.10;62.00;;;;;;4875447;29;19935;-80
2022/07/17 10:34:35;;;;;;;;;;;37.50;61.90;;;;;;4875451;29;20347;-80
2022/07/17 10:37:01;;;;;;;;;;;37.80;62.10;;;;;;4875068;29;20361;-79
2022/07/17 10:39:26;;;;;;;;;;;38.10;62.10;;;;;;4874130;29;19912;-80
2022/07/17 10:41:57;;;;;;;;;;;38.20;61.80;;;;;;4858290;29;19935;-80
2022/07/17 10:44:29;;;;;;;;;;;38.10;62.20;;;;;;4873180;29;19908;-80
2022/07/17 10:46:56;;;;;;;;;;;38.10;62.10;;;;;;4875243;29;20014;-79
2022/07/17 10:49:22;;;;;;;;;;;38.40;62.20;;;;;;4873686;29;19912;-80
2022/07/17 10:51:48;;;;;;;;;;;38.70;62.10;;;;;;4875323;29;20357;-80
2022/07/17 10:54:13;;;;;;;;;;;38.90;62.30;;;;;;4874833;29;20010;-79
2022/07/17 10:56:44;;;;;;;;;;;39.00;62.20;;;;;;4874976;29;19954;-80
2022/07/17 10:59:10;;;;;;;;;;;39.00;62.00;;;;;;4873920;29;19915;-80
2022/07/17 11:01:35;;;;;;;;;;;39.20;62.10;;;;;;4874811;29;19927;-79
2022/07/17 11:04:01;;;;;;;;;;;39.00;61.70;;;;;;4874828;29;19919;-80
2022/07/17 11:06:30;;;;;;;;;;;38.50;61.50;;;;;;4875009;29;19912;-79
2022/07/17 11:09:05;;;;;;;;;;;38.00;61.50;;;;;;4875982;29;20208;-79
2022/07/17 11:11:39;;;;;;;;;;;37.60;61.70;;;;;;4874236;29;19915;-79
2022/07/17 11:14:14;;;;;;;;;;;37.30;61.90;;;;;;4874205;29;19963;-78
2022/07/17 11:16:50;;;;;;;;;;;37.30;62.00;;;;;;4874985;29;19920;-79
2022/07/17 11:19:22;;;;;;;;;;;37.30;62.00;;;;;;4875329;29;19918;-79
2022/07/17 11:21:48;;;;;;;;;;;37.40;62.00;;;;;;4875469;29;20054;-79
2022/07/17 11:24:14;;;;;;;;;;;37.50;61.90;;;;;;4875223;29;19908;-79
2022/07/17 11:26:39;;;;;;;;;;;37.60;61.90;;;;;;4875008;29;20391;-79
2022/07/17 11:29:05;;;;;;;;;;;37.50;61.60;;;;;;4874756;29;19998;-78
2022/07/17 11:31:30;;;;;;;;;;;37.20;61.40;;;;;;4875648;29;19912;-78
2022/07/17 11:33:57;;;;;;;;;;;37.00;61.60;;;;;;4875537;29;19919;-79
2022/07/17 11:36:24;;;;;;;;;;;37.10;62.00;;;;;;4873273;29;19912;-79
2022/07/17 11:38:51;;;;;;;;;;;37.10;61.90;;;;;;4873802;29;19919;-79
2022/07/17 11:41:17;;;;;;;;;;;37.00;61.70;;;;;;4874369;29;19908;-79
2022/07/17 11:43:43;;;;;;;;;;;36.80;61.70;;;;;;4876901;29;19916;-79
2022/07/17 11:46:10;;;;;;;;;;;36.70;61.70;;;;;;4876489;29;19920;-79
2022/07/17 11:48:35;;;;;;;;;;;36.70;61.70;;;;;;4877910;29;19971;-81
2022/07/17 11:51:01;;;;;;;;;;;36.60;61.80;;;;;;4877460;29;19916;-79
2022/07/17 11:53:31;;;;;;;;;;;36.50;61.80;;;;;;4877800;29;19916;-79
2022/07/17 11:55:56;;;;;;;;;;;36.40;61.80;;;;;;4875317;29;20393;-79
2022/07/17 11:58:22;;;;;;;;;;;36.20;61.60;;;;;;4861392;29;19935;-79
2022/07/17 12:00:47;;;;;;;;;;;35.90;61.60;;;;;;4875609;29;19927;-79
2022/07/17 12:03:13;;;;;;;;;;;35.50;61.50;;;;;;4876382;29;19912;-79
2022/07/17 12:05:38;;;;;;;;;;;35.30;61.80;;;;;;4876144;29;20368;-79
2022/07/17 12:08:07;;;;;;;;;;;35.20;61.90;;;;;;4875998;29;19915;-80
2022/07/17 12:10:33;;;;;;;;;;;35.20;61.80;;;;;;4875198;29;20350;-79
2022/07/17 12:12:59;;;;;;;;;;;34.90;61.60;;;;;;4875746;29;19916;-73
2022/07/17 12:15:35;;;;;;;;;;;34.90;61.90;;;;;;4874870;29;19923;-79
2022/07/17 12:18:02;;;;;;;;;;;34.90;61.80;;;;;;4875821;29;19995;-80
2022/07/17 12:20:39;;;;;;;;;;;35.10;62.00;;;;;;4874066;29;19960;-79
2022/07/17 12:23:05;;;;;;;;;;;35.30;61.90;;;;;;4875753;29;19908;-78
2022/07/17 12:25:31;;;;;;;;;;;35.40;61.60;;;;;;4859214;29;19912;-79
2022/07/17 12:27:56;;;;;;;;;;;35.30;61.40;;;;;;4876546;29;20066;-79
2022/07/17 12:30:22;;;;;;;;;;;35.20;61.40;;;;;;4874710;29;19918;-79
2022/07/17 12:32:48;;;;;;;;;;;35.10;61.40;;;;;;4874434;29;20008;-79
2022/07/17 12:35:14;;;;;;;;;;;34.90;61.20;;;;;;4873173;29;19919;-79
2022/07/17 12:37:40;;;;;;;;;;;34.80;61.40;;;;;;4875281;29;19983;-79
2022/07/17 12:40:06;;;;;;;;;;;34.80;61.60;;;;;;4874666;29;19912;-78
2022/07/17 12:42:31;;;;;;;;;;;35.00;61.70;;;;;;4876403;29;19958;-79
2022/07/17 12:44:57;;;;;;;;;;;35.20;61.70;;;;;;4874318;29;19918;-81
2022/07/17 12:47:22;;;;;;;;;;;35.20;61.40;;;;;;4874486;29;19937;-79
2022/07/17 12:49:48;;;;;;;;;;;35.10;61.20;;;;;;4875611;29;19912;-79
2022/07/17 12:52:14;;;;;;;;;;;34.80;61.20;;;;;;4876090;29;19915;-78
2022/07/17 12:54:39;;;;;;;;;;;34.70;61.40;;;;;;4874877;29;19919;-79
2022/07/17 12:57:06;;;;;;;;;;;34.70;61.50;;;;;;4875471;29;19911;-78
2022/07/17 12:59:32;;;;;;;;;;;34.60;61.40;;;;;;4873316;29;19916;-78
2022/07/17 13:01:58;;;;;;;;;;;34.70;61.60;;;;;;4874197;29;20402;-78
2022/07/17 13:04:24;;;;;;;;;;;34.80;61.80;;;;;;4873120;29;20028;-78
2022/07/17 13:06:49;;;;;;;;;;;35.10;61.70;;;;;;4875927;29;19915;-78
2022/07/17 13:09:15;;;;;;;;;;;35.50;61.90;;;;;;4877236;29;20310;-78
2022/07/17 13:11:44;;;;;;;;;;;35.70;61.70;;;;;;4878471;29;19960;-79
2022/07/17 13:14:11;;;;;;;;;;;35.80;61.70;;;;;;4878014;29;19919;-79
2022/07/17 13:16:37;;;;;;;;;;;35.60;61.50;;;;;;4876220;29;20281;-79
2022/07/17 13:19:03;;;;;;;;;;;35.40;61.50;;;;;;4861170;29;19912;-78
2022/07/17 13:21:28;;;;;;;;;;;35.30;61.80;;;;;;4875599;29;20385;-79
2022/07/17 13:23:54;;;;;;;;;;;35.30;61.80;;;;;;4878469;29;20409;-79
2022/07/17 13:26:20;;;;;;;;;;;35.10;61.60;;;;;;4876911;29;19916;-80
2022/07/17 13:28:45;;;;;;;;;;;34.90;61.60;;;;;;4877198;29;19912;-79
2022/07/17 13:31:11;;;;;;;;;;;34.50;61.50;;;;;;4875925;29;19912;-80
2022/07/17 13:33:37;;;;;;;;;;;34.20;61.60;;;;;;4877389;29;19912;-80
2022/07/17 13:36:03;;;;;;;;;;;34.00;61.40;;;;;;4875695;29;20204;-80
2022/07/17 13:38:28;;;;;;;;;;;33.80;61.50;;;;;;4877383;29;19911;-80
2022/07/17 13:40:54;;;;;;;;;;;33.60;61.50;;;;;;4876945;29;20386;-79
2022/07/17 13:43:20;;;;;;;;;;;33.50;61.50;;;;;;4877309;29;19941;-79
2022/07/17 13:45:45;;;;;;;;;;;33.30;61.30;;;;;;4875407;29;19908;-79
2022/07/17 13:48:11;;;;;;;;;;;33.10;61.20;;;;;;4876776;29;20376;-79
2022/07/17 13:50:37;;;;;;;;;;;32.90;61.30;;;;;;4859836;29;19951;-79
2022/07/17 13:53:02;;;;;;;;;;;32.70;61.40;;;;;;4877104;29;20389;-79
2022/07/17 13:55:28;;;;;;;;;;;32.60;61.40;;;;;;4877687;29;19916;-79
2022/07/17 13:57:54;;;;;;;;;;;32.50;61.40;;;;;;4876408;29;20292;-79
2022/07/17 14:00:19;;;;;;;;;;;32.30;61.40;;;;;;4875202;29;20368;-79
2022/07/17 14:02:45;;;;;;;;;;;32.20;61.50;;;;;;4876353;29;19955;-80
2022/07/17 14:05:10;;;;;;;;;;;32.10;61.50;;;;;;4876299;29;19912;-79
2022/07/17 14:07:37;;;;;;;;;;;32.10;61.40;;;;;;4875685;29;19971;-79
2022/07/17 14:10:02;;;;;;;;;;;32.10;61.50;;;;;;4876730;29;19917;-80